sensor_id;sensor_type;location;lat;lon;timestamp;pressure;altitude;pressure_sealevel;temperature;humidity
80382;BME280;69692;55.820;37.490;2023-04-29T00:01:08;99542.09;;;5.97;79.79
80382;BME280;69692;55.820;37.490;2023-04-29T00:03:34;99536.75;;;5.97;79.04
80382;BME280;69692;55.820;37.490;2023-04-29T00:06:00;99551.28;;;5.88;79.16
80382;BME280;69692;55.820;37.490;2023-04-29T00:08:26;99549.00;;;5.79;79.71
80382;BME280;69692;55.820;37.490;2023-04-29T00:10:52;99545.69;;;5.77;79.31
80382;BME280;69692;55.820;37.490;2023-04-29T00:13:17;99541.22;;;5.84;80.15
80382;BME280;69692;55.820;37.490;2023-04-29T00:15:43;99546.97;;;5.87;79.95
80382;BME280;69692;55.820;37.490;2023-04-29T00:18:09;99546.34;;;5.85;80.14
80382;BME280;69692;55.820;37.490;2023-04-29T00:20:35;99548.63;;;5.95;79.69
80382;BME280;69692;55.820;37.490;2023-04-29T00:23:03;99550.31;;;5.96;78.79
80382;BME280;69692;55.820;37.490;2023-04-29T00:25:28;99544.47;;;5.79;78.10
80382;BME280;69692;55.820;37.490;2023-04-29T00:27:54;99544.69;;;5.71;79.11
80382;BME280;69692;55.820;37.490;2023-04-29T00:30:20;99544.06;;;5.69;80.29
80382;BME280;69692;55.820;37.490;2023-04-29T00:32:46;99538.75;;;5.82;79.94
80382;BME280;69692;55.820;37.490;2023-04-29T00:35:12;99537.56;;;5.91;78.50
80382;BME280;69692;55.820;37.490;2023-04-29T00:37:38;99539.00;;;5.94;77.81
80382;BME280;69692;55.820;37.490;2023-04-29T00:40:05;99532.22;;;5.91;78.05
80382;BME280;69692;55.820;37.490;2023-04-29T00:42:31;99521.75;;;5.90;79.49
80382;BME280;69692;55.820;37.490;2023-04-29T00:44:59;99526.06;;;5.97;78.70
80382;BME280;69692;55.820;37.490;2023-04-29T00:47:25;99517.22;;;5.90;76.77
80382;BME280;69692;55.820;37.490;2023-04-29T00:49:51;99518.66;;;5.93;78.34
80382;BME280;69692;55.820;37.490;2023-04-29T00:52:17;99537.13;;;5.94;78.36
80382;BME280;69692;55.820;37.490;2023-04-29T00:54:43;99528.13;;;5.95;77.36
80382;BME280;69692;55.820;37.490;2023-04-29T00:57:09;99522.78;;;5.95;77.68
80382;BME280;69692;55.820;37.490;2023-04-29T00:59:35;99520.28;;;5.94;76.94
80382;BME280;69692;55.820;37.490;2023-04-29T01:02:02;99521.53;;;5.91;78.05
80382;BME280;69692;55.820;37.490;2023-04-29T01:04:29;99512.69;;;5.91;78.34
80382;BME280;69692;55.820;37.490;2023-04-29T01:12:32;99512.13;;;5.95;77.30
80382;BME280;69692;55.820;37.490;2023-04-29T01:17:38;99515.59;;;6.09;77.61
80382;BME280;69692;55.820;37.490;2023-04-29T01:20:08;99526.91;;;6.18;77.39
80382;BME280;69692;55.820;37.490;2023-04-29T01:22:35;99528.75;;;6.17;78.14
80382;BME280;69692;55.820;37.490;2023-04-29T01:25:01;99523.81;;;6.21;78.38
80382;BME280;69692;55.820;37.490;2023-04-29T01:27:38;99519.72;;;6.25;77.32
80382;BME280;69692;55.820;37.490;2023-04-29T01:33:12;99518.69;;;6.26;76.81
80382;BME280;69692;55.820;37.490;2023-04-29T01:38:22;99523.22;;;6.32;77.40
80382;BME280;69692;55.820;37.490;2023-04-29T01:41:29;99521.97;;;6.28;77.11
80382;BME280;69692;55.820;37.490;2023-04-29T01:44:07;99514.38;;;6.32;77.79
80382;BME280;69692;55.820;37.490;2023-04-29T01:46:34;99509.44;;;6.28;77.08
80382;BME280;69692;55.820;37.490;2023-04-29T01:49:00;99511.72;;;6.25;76.35
80382;BME280;69692;55.820;37.490;2023-04-29T01:51:26;99503.69;;;6.25;76.18
80382;BME280;69692;55.820;37.490;2023-04-29T01:53:53;99508.19;;;6.24;76.98
80382;BME280;69692;55.820;37.490;2023-04-29T01:56:18;99508.63;;;6.28;76.71
80382;BME280;69692;55.820;37.490;2023-04-29T01:59:01;99516.84;;;6.26;76.39
80382;BME280;69692;55.820;37.490;2023-04-29T02:01:52;99509.25;;;6.17;76.86
80382;BME280;69692;55.820;37.490;2023-04-29T02:04:19;99512.09;;;6.22;76.99
80382;BME280;69692;55.820;37.490;2023-04-29T02:06:45;99521.78;;;6.30;76.67
80382;BME280;69692;55.820;37.490;2023-04-29T02:09:11;99518.69;;;6.33;76.22
80382;BME280;69692;55.820;37.490;2023-04-29T02:11:38;99519.91;;;6.37;76.13
80382;BME280;69692;55.820;37.490;2023-04-29T02:14:04;99527.72;;;6.32;76.37
80382;BME280;69692;55.820;37.490;2023-04-29T02:16:31;99518.88;;;6.38;76.73
80382;BME280;69692;55.820;37.490;2023-04-29T02:19:02;99518.47;;;6.47;75.89
80382;BME280;69692;55.820;37.490;2023-04-29T02:21:28;99532.66;;;6.48;75.88
80382;BME280;69692;55.820;37.490;2023-04-29T02:23:53;99533.47;;;6.48;76.41
80382;BME280;69692;55.820;37.490;2023-04-29T02:26:22;99521.34;;;6.52;76.87
80382;BME280;69692;55.820;37.490;2023-04-29T02:28:48;99531.22;;;6.45;76.34
80382;BME280;69692;55.820;37.490;2023-04-29T02:31:14;99538.19;;;6.40;76.58
80382;BME280;69692;55.820;37.490;2023-04-29T02:33:43;99536.16;;;6.35;76.73
80382;BME280;69692;55.820;37.490;2023-04-29T02:36:09;99530.59;;;6.37;76.56
80382;BME280;69692;55.820;37.490;2023-04-29T02:38:35;99538.03;;;6.41;76.69
80382;BME280;69692;55.820;37.490;2023-04-29T02:41:01;99541.50;;;6.42;76.22
80382;BME280;69692;55.820;37.490;2023-04-29T02:43:27;99531.41;;;6.37;75.98
80382;BME280;69692;55.820;37.490;2023-04-29T02:45:55;99539.44;;;6.24;75.90
80382;BME280;69692;55.820;37.490;2023-04-29T02:48:22;99542.53;;;6.14;76.75
80382;BME280;69692;55.820;37.490;2023-04-29T02:50:47;99545.63;;;6.11;76.90
80382;BME280;69692;55.820;37.490;2023-04-29T02:53:13;99551.13;;;6.10;76.46
80382;BME280;69692;55.820;37.490;2023-04-29T02:55:39;99556.72;;;6.15;77.72
80382;BME280;69692;55.820;37.490;2023-04-29T02:58:08;99563.50;;;6.11;76.54
80382;BME280;69692;55.820;37.490;2023-04-29T03:00:34;99565.09;;;6.05;76.74
80382;BME280;69692;55.820;37.490;2023-04-29T03:03:00;99573.94;;;5.99;77.99
80382;BME280;69692;55.820;37.490;2023-04-29T03:05:26;99575.16;;;5.96;77.11
80382;BME280;69692;55.820;37.490;2023-04-29T03:07:52;99573.13;;;5.98;76.59
80382;BME280;69692;55.820;37.490;2023-04-29T03:10:18;99594.06;;;6.02;77.16
80382;BME280;69692;55.820;37.490;2023-04-29T03:12:45;99588.69;;;5.95;76.51
80382;BME280;69692;55.820;37.490;2023-04-29T03:15:11;99593.66;;;5.98;76.81
80382;BME280;69692;55.820;37.490;2023-04-29T03:17:37;99596.53;;;6.03;77.50
80382;BME280;69692;55.820;37.490;2023-04-29T03:20:04;99608.25;;;6.02;76.33
80382;BME280;69692;55.820;37.490;2023-04-29T03:22:30;99610.09;;;6.02;75.43
80382;BME280;69692;55.820;37.490;2023-04-29T03:24:56;99625.91;;;6.10;75.69
80382;BME280;69692;55.820;37.490;2023-04-29T03:27:22;99631.50;;;6.15;75.64
80382;BME280;69692;55.820;37.490;2023-04-29T03:29:48;99643.81;;;6.16;75.21
80382;BME280;69692;55.820;37.490;2023-04-29T03:32:15;99648.75;;;6.19;75.79
80382;BME280;69692;55.820;37.490;2023-04-29T03:34:41;99645.06;;;6.20;74.69
80382;BME280;69692;55.820;37.490;2023-04-29T03:37:24;99652.44;;;6.18;74.31
80382;BME280;69692;55.820;37.490;2023-04-29T03:39:57;99648.53;;;6.14;75.39
80382;BME280;69692;55.820;37.490;2023-04-29T03:42:23;99646.28;;;6.11;74.54
80382;BME280;69692;55.820;37.490;2023-04-29T03:44:49;99654.47;;;6.03;75.84
80382;BME280;69692;55.820;37.490;2023-04-29T03:47:14;99649.34;;;6.08;76.07
80382;BME280;69692;55.820;37.490;2023-04-29T03:49:40;99652.22;;;6.06;76.00
80382;BME280;69692;55.820;37.490;2023-04-29T03:52:06;99661.84;;;6.01;76.32
80382;BME280;69692;55.820;37.490;2023-04-29T03:54:32;99660.38;;;5.91;74.99
80382;BME280;69692;55.820;37.490;2023-04-29T03:56:58;99659.34;;;5.92;76.11
80382;BME280;69692;55.820;37.490;2023-04-29T03:59:24;99659.34;;;5.92;75.37
80382;BME280;69692;55.820;37.490;2023-04-29T04:01:51;99664.06;;;5.90;76.17
80382;BME280;69692;55.820;37.490;2023-04-29T04:04:19;99656.59;;;5.73;76.71
80382;BME280;69692;55.820;37.490;2023-04-29T04:06:47;99663.34;;;5.68;76.26
80382;BME280;69692;55.820;37.490;2023-04-29T04:09:18;99666.22;;;5.74;76.37
80382;BME280;69692;55.820;37.490;2023-04-29T04:11:44;99672.81;;;5.78;76.41
80382;BME280;69692;55.820;37.490;2023-04-29T04:14:11;99671.59;;;5.80;74.56
80382;BME280;69692;55.820;37.490;2023-04-29T04:16:37;99667.88;;;5.75;75.12
80382;BME280;69692;55.820;37.490;2023-04-29T04:19:03;99663.97;;;5.71;77.65
80382;BME280;69692;55.820;37.490;2023-04-29T04:21:31;99654.72;;;5.66;78.50
80382;BME280;69692;55.820;37.490;2023-04-29T04:24:03;99666.22;;;5.67;77.48
80382;BME280;69692;55.820;37.490;2023-04-29T04:26:29;99658.44;;;5.72;77.30
80382;BME280;69692;55.820;37.490;2023-04-29T04:28:55;99658.84;;;5.69;77.32
80382;BME280;69692;55.820;37.490;2023-04-29T04:31:33;99658.41;;;5.65;76.83
80382;BME280;69692;55.820;37.490;2023-04-29T04:33:58;99670.09;;;5.64;76.82
80382;BME280;69692;55.820;37.490;2023-04-29T04:36:25;99671.75;;;5.65;77.08
80382;BME280;69692;55.820;37.490;2023-04-29T04:38:51;99671.94;;;5.64;77.53
80382;BME280;69692;55.820;37.490;2023-04-29T04:41:17;99673.78;;;5.63;77.42
80382;BME280;69692;55.820;37.490;2023-04-29T04:43:45;99669.50;;;5.69;77.82
80382;BME280;69692;55.820;37.490;2023-04-29T04:46:16;99674.22;;;5.67;77.02
80382;BME280;69692;55.820;37.490;2023-04-29T04:48:57;99662.91;;;5.65;77.28
80382;BME280;69692;55.820;37.490;2023-04-29T04:51:22;99655.28;;;5.62;77.21
80382;BME280;69692;55.820;37.490;2023-04-29T04:53:48;99662.31;;;5.69;76.83
80382;BME280;69692;55.820;37.490;2023-04-29T04:56:18;99656.38;;;5.67;76.76
80382;BME280;69692;55.820;37.490;2023-04-29T04:58:45;99659.84;;;5.68;76.11
80382;BME280;69692;55.820;37.490;2023-04-29T05:01:11;99665.41;;;5.73;76.30
80382;BME280;69692;55.820;37.490;2023-04-29T05:03:37;99658.63;;;5.71;77.06
80382;BME280;69692;55.820;37.490;2023-04-29T05:06:02;99658.22;;;5.74;76.75
80382;BME280;69692;55.820;37.490;2023-04-29T05:08:29;99666.66;;;5.77;76.65
80382;BME280;69692;55.820;37.490;2023-04-29T05:10:57;99671.75;;;5.65;75.88
80382;BME280;69692;55.820;37.490;2023-04-29T05:13:23;99674.59;;;5.64;76.79
80382;BME280;69692;55.820;37.490;2023-04-29T05:15:50;99670.25;;;5.56;77.03
80382;BME280;69692;55.820;37.490;2023-04-29T05:18:20;99672.13;;;5.62;75.77
80382;BME280;69692;55.820;37.490;2023-04-29T05:20:48;99670.47;;;5.55;75.96
80382;BME280;69692;55.820;37.490;2023-04-29T05:23:14;99669.03;;;5.59;77.08
80382;BME280;69692;55.820;37.490;2023-04-29T05:25:41;99663.91;;;5.57;78.14
80382;BME280;69692;55.820;37.490;2023-04-29T05:28:07;99665.34;;;5.60;76.59
80382;BME280;69692;55.820;37.490;2023-04-29T05:30:35;99677.72;;;5.67;78.87
80382;BME280;69692;55.820;37.490;2023-04-29T05:33:02;99679.75;;;5.65;77.02
80382;BME280;69692;55.820;37.490;2023-04-29T05:35:28;99678.09;;;5.64;76.83
80382;BME280;69692;55.820;37.490;2023-04-29T05:37:55;99670.91;;;5.65;77.34
80382;BME280;69692;55.820;37.490;2023-04-29T05:40:39;99675.06;;;5.74;78.16
80382;BME280;69692;55.820;37.490;2023-04-29T05:43:31;99679.16;;;5.70;76.78
80382;BME280;69692;55.820;37.490;2023-04-29T05:45:57;99688.41;;;5.67;76.59
80382;BME280;69692;55.820;37.490;2023-04-29T05:48:23;99681.84;;;5.70;77.80
80382;BME280;69692;55.820;37.490;2023-04-29T05:50:49;99689.84;;;5.77;76.28
80382;BME280;69692;55.820;37.490;2023-04-29T05:53:16;99702.22;;;5.84;76.56
80382;BME280;69692;55.820;37.490;2023-04-29T05:55:42;99699.41;;;5.92;76.07
80382;BME280;69692;55.820;37.490;2023-04-29T05:58:11;99698.00;;;5.96;75.11
80382;BME280;69692;55.820;37.490;2023-04-29T06:00:37;99703.16;;;6.05;75.99
80382;BME280;69692;55.820;37.490;2023-04-29T06:03:10;99705.06;;;6.24;75.68
80382;BME280;69692;55.820;37.490;2023-04-29T06:05:37;99715.00;;;6.43;74.07
80382;BME280;69692;55.820;37.490;2023-04-29T06:08:18;99716.25;;;6.47;73.15
80382;BME280;69692;55.820;37.490;2023-04-29T06:10:59;99716.66;;;6.44;73.17
80382;BME280;69692;55.820;37.490;2023-04-29T06:13:27;99719.13;;;6.52;74.46
80382;BME280;69692;55.820;37.490;2023-04-29T06:15:55;99725.31;;;6.66;74.48
80382;BME280;69692;55.820;37.490;2023-04-29T06:18:21;99719.16;;;6.79;74.56
80382;BME280;69692;55.820;37.490;2023-04-29T06:20:47;99726.19;;;6.86;73.45
80382;BME280;69692;55.820;37.490;2023-04-29T06:23:13;99732.75;;;6.97;72.99
80382;BME280;69692;55.820;37.490;2023-04-29T06:25:40;99731.34;;;7.14;72.22
80382;BME280;69692;55.820;37.490;2023-04-29T06:28:07;99724.53;;;7.32;71.92
80382;BME280;69692;55.820;37.490;2023-04-29T06:30:33;99740.59;;;7.38;70.97
80382;BME280;69692;55.820;37.490;2023-04-29T06:32:59;99736.88;;;7.39;71.04
80382;BME280;69692;55.820;37.490;2023-04-29T06:35:24;99744.69;;;7.41;69.72
80382;BME280;69692;55.820;37.490;2023-04-29T06:38:02;99735.44;;;7.24;70.26
80382;BME280;69692;55.820;37.490;2023-04-29T06:40:46;99728.44;;;7.09;70.81
80382;BME280;69692;55.820;37.490;2023-04-29T06:43:14;99740.59;;;7.18;71.33
80382;BME280;69692;55.820;37.490;2023-04-29T06:45:58;99731.97;;;7.30;71.53
80382;BME280;69692;55.820;37.490;2023-04-29T06:48:38;99735.63;;;7.29;70.09
80382;BME280;69692;55.820;37.490;2023-04-29T06:51:04;99741.00;;;7.35;70.31
80382;BME280;69692;55.820;37.490;2023-04-29T06:53:34;99746.56;;;7.47;70.68
80382;BME280;69692;55.820;37.490;2023-04-29T06:56:00;99748.19;;;7.48;70.89
80382;BME280;69692;55.820;37.490;2023-04-29T06:58:26;99747.56;;;7.53;70.21
80382;BME280;69692;55.820;37.490;2023-04-29T07:00:51;99757.44;;;7.59;70.09
80382;BME280;69692;55.820;37.490;2023-04-29T07:03:17;99759.50;;;7.63;69.27
80382;BME280;69692;55.820;37.490;2023-04-29T07:05:44;99756.19;;;7.68;69.15
80382;BME280;69692;55.820;37.490;2023-04-29T07:08:11;99761.16;;;7.64;68.47
80382;BME280;69692;55.820;37.490;2023-04-29T07:10:37;99764.03;;;7.69;68.97
80382;BME280;69692;55.820;37.490;2023-04-29T07:13:03;99765.47;;;7.78;69.17
80382;BME280;69692;55.820;37.490;2023-04-29T07:15:32;99761.50;;;7.94;69.47
80382;BME280;69692;55.820;37.490;2023-04-29T07:17:58;99761.94;;;7.91;69.44
80382;BME280;69692;55.820;37.490;2023-04-29T07:20:25;99776.94;;;7.99;69.45
80382;BME280;69692;55.820;37.490;2023-04-29T07:22:52;99776.09;;;8.05;69.91
80382;BME280;69692;55.820;37.490;2023-04-29T07:25:18;99786.75;;;8.25;69.29
80382;BME280;69692;55.820;37.490;2023-04-29T07:27:44;99780.28;;;8.46;67.56
80382;BME280;69692;55.820;37.490;2023-04-29T07:30:09;99787.06;;;8.55;67.70
80382;BME280;69692;55.820;37.490;2023-04-29T07:32:35;99784.78;;;8.58;66.68
80382;BME280;69692;55.820;37.490;2023-04-29T07:35:03;99785.28;;;8.29;67.08
80382;BME280;69692;55.820;37.490;2023-04-29T07:37:29;99787.78;;;8.37;68.07
80382;BME280;69692;55.820;37.490;2023-04-29T07:39:55;99796.09;;;8.09;68.22
80382;BME280;69692;55.820;37.490;2023-04-29T07:42:23;99795.00;;;8.23;68.21
80382;BME280;69692;55.820;37.490;2023-04-29T07:44:48;99791.16;;;8.64;67.31
80382;BME280;69692;55.820;37.490;2023-04-29T07:47:14;99781.19;;;9.09;66.90
80382;BME280;69692;55.820;37.490;2023-04-29T07:49:40;99782.44;;;9.56;64.84
80382;BME280;69692;55.820;37.490;2023-04-29T07:52:07;99790.06;;;9.60;63.98
80382;BME280;69692;55.820;37.490;2023-04-29T07:54:35;99792.25;;;9.44;64.61
80382;BME280;69692;55.820;37.490;2023-04-29T07:57:01;99794.34;;;9.42;63.66
80382;BME280;69692;55.820;37.490;2023-04-29T07:59:30;99799.13;;;9.40;64.47
80382;BME280;69692;55.820;37.490;2023-04-29T08:01:56;99799.72;;;9.42;65.70
80382;BME280;69692;55.820;37.490;2023-04-29T08:04:22;99807.91;;;9.54;64.12
80382;BME280;69692;55.820;37.490;2023-04-29T08:06:56;99809.91;;;9.59;62.95
80382;BME280;69692;55.820;37.490;2023-04-29T08:09:22;99823.50;;;9.39;64.84
80382;BME280;69692;55.820;37.490;2023-04-29T08:11:48;99813.25;;;9.29;63.43
80382;BME280;69692;55.820;37.490;2023-04-29T08:14:13;99818.72;;;9.66;61.67
80382;BME280;69692;55.820;37.490;2023-04-29T08:16:39;99816.97;;;9.96;64.01
80382;BME280;69692;55.820;37.490;2023-04-29T08:19:05;99817.06;;;9.90;60.85
80382;BME280;69692;55.820;37.490;2023-04-29T08:21:31;99811.47;;;10.09;60.91
80382;BME280;69692;55.820;37.490;2023-04-29T08:23:57;99823.16;;;10.22;62.65
80382;BME280;69692;55.820;37.490;2023-04-29T08:26:22;99817.75;;;10.03;61.58
80382;BME280;69692;55.820;37.490;2023-04-29T08:28:48;99822.53;;;10.01;59.93
80382;BME280;69692;55.820;37.490;2023-04-29T08:31:18;99826.72;;;9.97;60.75
80382;BME280;69692;55.820;37.490;2023-04-29T08:33:44;99831.69;;;10.37;59.45
80382;BME280;69692;55.820;37.490;2023-04-29T08:36:10;99825.47;;;10.73;61.21
80382;BME280;69692;55.820;37.490;2023-04-29T08:38:36;99820.03;;;10.91;58.98
80382;BME280;69692;55.820;37.490;2023-04-29T08:41:02;99817.75;;;11.07;54.85
80382;BME280;69692;55.820;37.490;2023-04-29T08:43:28;99821.91;;;11.21;56.71
80382;BME280;69692;55.820;37.490;2023-04-29T08:45:57;99819.03;;;11.46;54.83
80382;BME280;69692;55.820;37.490;2023-04-29T08:48:23;99815.13;;;11.42;53.11
80382;BME280;69692;55.820;37.490;2023-04-29T08:50:50;99817.28;;;11.10;55.45
80382;BME280;69692;55.820;37.490;2023-04-29T08:53:16;99820.44;;;10.77;54.66
80382;BME280;69692;55.820;37.490;2023-04-29T08:55:47;99827.34;;;10.54;55.37
80382;BME280;69692;55.820;37.490;2023-04-29T08:58:14;99836.63;;;9.97;56.48
80382;BME280;69692;55.820;37.490;2023-04-29T09:00:43;99841.63;;;10.36;56.29
80382;BME280;69692;55.820;37.490;2023-04-29T09:03:17;99838.94;;;10.85;57.08
80382;BME280;69692;55.820;37.490;2023-04-29T09:05:48;99836.06;;;11.28;56.98
80382;BME280;69692;55.820;37.490;2023-04-29T09:08:15;99848.16;;;11.79;55.06
80382;BME280;69692;55.820;37.490;2023-04-29T09:10:41;99837.59;;;12.01;52.62
80382;BME280;69692;55.820;37.490;2023-04-29T09:13:08;99831.81;;;12.44;49.93
80382;BME280;69692;55.820;37.490;2023-04-29T09:15:37;99834.31;;;12.62;47.90
80382;BME280;69692;55.820;37.490;2023-04-29T09:18:04;99840.34;;;12.52;46.99
80382;BME280;69692;55.820;37.490;2023-04-29T09:20:30;99835.59;;;11.96;46.56
80382;BME280;69692;55.820;37.490;2023-04-29T09:22:58;99837.50;;;11.96;46.84
80382;BME280;69692;55.820;37.490;2023-04-29T09:25:25;99844.94;;;12.40;46.15
80382;BME280;69692;55.820;37.490;2023-04-29T09:27:52;99845.56;;;12.82;46.57
80382;BME280;69692;55.820;37.490;2023-04-29T09:30:18;99846.84;;;12.80;46.47
80382;BME280;69692;55.820;37.490;2023-04-29T09:32:56;99840.78;;;13.01;45.54
80382;BME280;69692;55.820;37.490;2023-04-29T09:35:28;99841.44;;;13.37;44.04
80382;BME280;69692;55.820;37.490;2023-04-29T09:38:11;99834.91;;;13.66;42.56
80382;BME280;69692;55.820;37.490;2023-04-29T09:40:38;99844.09;;;13.99;43.01
80382;BME280;69692;55.820;37.490;2023-04-29T09:43:10;99838.41;;;14.39;42.22
80382;BME280;69692;55.820;37.490;2023-04-29T09:45:40;99839.47;;;14.38;41.71
80382;BME280;69692;55.820;37.490;2023-04-29T09:48:08;99840.41;;;14.44;43.28
80382;BME280;69692;55.820;37.490;2023-04-29T09:50:35;99840.91;;;14.24;42.33
80382;BME280;69692;55.820;37.490;2023-04-29T09:53:02;99842.78;;;14.23;43.20
80382;BME280;69692;55.820;37.490;2023-04-29T09:55:29;99847.44;;;14.06;41.35
80382;BME280;69692;55.820;37.490;2023-04-29T09:57:56;99852.13;;;13.60;43.31
80382;BME280;69692;55.820;37.490;2023-04-29T10:00:22;99861.09;;;13.32;42.56
80382;BME280;69692;55.820;37.490;2023-04-29T10:02:49;99868.13;;;13.05;42.87
80382;BME280;69692;55.820;37.490;2023-04-29T10:05:16;99869.59;;;12.84;43.13
80382;BME280;69692;55.820;37.490;2023-04-29T10:07:42;99871.25;;;13.25;42.86
80382;BME280;69692;55.820;37.490;2023-04-29T10:10:10;99864.66;;;14.00;41.45
80382;BME280;69692;55.820;37.490;2023-04-29T10:12:39;99864.19;;;14.25;38.14
80382;BME280;69692;55.820;37.490;2023-04-29T10:15:30;99866.03;;;13.52;38.83
80382;BME280;69692;55.820;37.490;2023-04-29T10:18:20;99870.50;;;13.30;40.51
80382;BME280;69692;55.820;37.490;2023-04-29T10:20:47;99874.25;;;13.00;41.02
80382;BME280;69692;55.820;37.490;2023-04-29T10:23:14;99872.03;;;12.45;41.95
80382;BME280;69692;55.820;37.490;2023-04-29T10:25:43;99891.72;;;12.69;43.28
80382;BME280;69692;55.820;37.490;2023-04-29T10:28:14;99880.06;;;13.09;42.97
80382;BME280;69692;55.820;37.490;2023-04-29T10:30:44;99877.09;;;12.53;42.62
80382;BME280;69692;55.820;37.490;2023-04-29T10:33:11;99884.16;;;13.23;41.66
80382;BME280;69692;55.820;37.490;2023-04-29T10:35:37;99886.25;;;13.50;39.96
80382;BME280;69692;55.820;37.490;2023-04-29T10:38:12;99880.97;;;13.88;39.17
80382;BME280;69692;55.820;37.490;2023-04-29T10:40:41;99885.38;;;13.61;38.97
80382;BME280;69692;55.820;37.490;2023-04-29T10:43:09;99896.53;;;13.07;39.08
80382;BME280;69692;55.820;37.490;2023-04-29T10:45:35;99889.69;;;13.17;40.50
80382;BME280;69692;55.820;37.490;2023-04-29T10:50:31;99897.25;;;13.60;40.12
80382;BME280;69692;55.820;37.490;2023-04-29T10:53:01;99900.44;;;13.40;40.96
80382;BME280;69692;55.820;37.490;2023-04-29T10:55:27;99901.06;;;13.30;41.04
80382;BME280;69692;55.820;37.490;2023-04-29T10:57:53;99906.88;;;13.10;40.89
80382;BME280;69692;55.820;37.490;2023-04-29T11:00:29;99912.13;;;12.77;41.54
80382;BME280;69692;55.820;37.490;2023-04-29T11:02:59;99912.59;;;12.62;41.59
80382;BME280;69692;55.820;37.490;2023-04-29T11:05:33;99916.63;;;12.48;42.51
80382;BME280;69692;55.820;37.490;2023-04-29T11:08:18;99924.84;;;12.41;42.84
80382;BME280;69692;55.820;37.490;2023-04-29T11:10:52;99923.31;;;12.45;42.26
80382;BME280;69692;55.820;37.490;2023-04-29T11:15:47;99923.53;;;13.07;41.26
80382;BME280;69692;55.820;37.490;2023-04-29T11:18:13;99917.00;;;13.60;40.82
80382;BME280;69692;55.820;37.490;2023-04-29T11:23:37;99922.25;;;15.38;35.34
80382;BME280;69692;55.820;37.490;2023-04-29T11:26:03;99919.41;;;14.79;34.68
80382;BME280;69692;55.820;37.490;2023-04-29T11:28:30;99924.31;;;14.82;37.82
80382;BME280;69692;55.820;37.490;2023-04-29T11:30:57;99922.03;;;15.45;37.39
80382;BME280;69692;55.820;37.490;2023-04-29T11:33:23;99919.00;;;15.36;37.19
80382;BME280;69692;55.820;37.490;2023-04-29T11:35:50;99915.78;;;15.98;33.98
80382;BME280;69692;55.820;37.490;2023-04-29T11:38:16;99909.97;;;16.22;34.93
80382;BME280;69692;55.820;37.490;2023-04-29T11:40:51;99912.13;;;16.15;35.84
80382;BME280;69692;55.820;37.490;2023-04-29T11:43:17;99906.78;;;16.30;33.30
80382;BME280;69692;55.820;37.490;2023-04-29T11:45:46;99908.13;;;15.90;33.31
80382;BME280;69692;55.820;37.490;2023-04-29T11:48:23;99912.44;;;15.86;32.61
80382;BME280;69692;55.820;37.490;2023-04-29T11:50:51;99909.47;;;15.61;33.17
80382;BME280;69692;55.820;37.490;2023-04-29T11:53:22;99917.53;;;15.77;32.81
80382;BME280;69692;55.820;37.490;2023-04-29T11:55:52;99912.16;;;15.07;34.37
80382;BME280;69692;55.820;37.490;2023-04-29T11:58:19;99914.50;;;14.76;33.90
80382;BME280;69692;55.820;37.490;2023-04-29T12:00:49;99917.84;;;14.45;38.25
80382;BME280;69692;55.820;37.490;2023-04-29T12:03:19;99915.53;;;14.37;37.56
80382;BME280;69692;55.820;37.490;2023-04-29T12:05:55;99909.78;;;14.33;37.08
80382;BME280;69692;55.820;37.490;2023-04-29T12:08:21;99908.59;;;14.07;35.76
80382;BME280;69692;55.820;37.490;2023-04-29T12:10:48;99918.59;;;13.90;36.16
80382;BME280;69692;55.820;37.490;2023-04-29T12:13:15;99909.16;;;13.92;37.54
80382;BME280;69692;55.820;37.490;2023-04-29T12:15:41;99911.13;;;13.80;37.38
80382;BME280;69692;55.820;37.490;2023-04-29T12:18:07;99919.06;;;13.70;37.29
80382;BME280;69692;55.820;37.490;2023-04-29T12:20:34;99922.41;;;13.60;35.79
80382;BME280;69692;55.820;37.490;2023-04-29T12:23:13;99917.53;;;13.91;38.01
80382;BME280;69692;55.820;37.490;2023-04-29T12:25:40;99914.97;;;14.35;35.28
80382;BME280;69692;55.820;37.490;2023-04-29T12:28:12;99913.25;;;14.45;34.59
80382;BME280;69692;55.820;37.490;2023-04-29T12:30:38;99914.97;;;14.35;33.90
80382;BME280;69692;55.820;37.490;2023-04-29T12:33:07;99909.22;;;13.97;33.66
80382;BME280;69692;55.820;37.490;2023-04-29T12:35:33;99905.44;;;13.65;34.48
80382;BME280;69692;55.820;37.490;2023-04-29T12:37:59;99911.09;;;13.47;35.15
80382;BME280;69692;55.820;37.490;2023-04-29T12:40:25;99911.25;;;13.40;34.93
80382;BME280;69692;55.820;37.490;2023-04-29T12:42:52;99911.78;;;13.25;35.18
80382;BME280;69692;55.820;37.490;2023-04-29T12:45:32;99920.94;;;13.24;36.13
80382;BME280;69692;55.820;37.490;2023-04-29T12:47:59;99922.47;;;13.20;37.10
80382;BME280;69692;55.820;37.490;2023-04-29T12:50:35;99916.03;;;13.09;38.27
80382;BME280;69692;55.820;37.490;2023-04-29T12:53:05;99918.13;;;13.07;37.92
80382;BME280;69692;55.820;37.490;2023-04-29T12:55:34;99922.72;;;13.07;38.58
80382;BME280;69692;55.820;37.490;2023-04-29T12:58:03;99920.13;;;13.12;38.46
80382;BME280;69692;55.820;37.490;2023-04-29T13:00:29;99916.03;;;13.09;38.04
80382;BME280;69692;55.820;37.490;2023-04-29T13:02:54;99922.59;;;13.13;39.65
80382;BME280;69692;55.820;37.490;2023-04-29T13:05:21;99919.81;;;13.37;37.28
80382;BME280;69692;55.820;37.490;2023-04-29T13:07:47;99906.63;;;13.86;37.74
80382;BME280;69692;55.820;37.490;2023-04-29T13:10:13;99903.84;;;14.14;36.26
80382;BME280;69692;55.820;37.490;2023-04-29T13:12:39;99901.94;;;14.48;35.22
80382;BME280;69692;55.820;37.490;2023-04-29T13:15:06;99900.91;;;14.54;34.10
80382;BME280;69692;55.820;37.490;2023-04-29T13:17:34;99905.78;;;14.74;35.62
80382;BME280;69692;55.820;37.490;2023-04-29T13:20:02;99901.81;;;14.82;35.38
80382;BME280;69692;55.820;37.490;2023-04-29T13:22:28;99913.22;;;15.06;33.86
80382;BME280;69692;55.820;37.490;2023-04-29T13:24:55;99907.72;;;15.23;33.75